sensor_id;sensor_type;location;lat;lon;timestamp;P1;durP1;ratioP1;P2;durP2;ratioP2
15921;SDS011;8060;50.948;3.146;2023-10-09T00:00:08;12.97;;;7.50;;
15921;SDS011;8060;50.948;3.146;2023-10-09T00:02:51;12.03;;;7.43;;
15921;SDS011;8060;50.948;3.146;2023-10-09T00:05:20;15.20;;;7.67;;
15921;SDS011;8060;50.948;3.146;2023-10-09T00:08:04;11.77;;;6.80;;
15921;SDS011;8060;50.948;3.146;2023-10-09T00:10:32;11.57;;;7.33;;
15921;SDS011;8060;50.948;3.146;2023-10-09T00:13:12;13.30;;;7.70;;
15921;SDS011;8060;50.948;3.146;2023-10-09T00:15:41;15.37;;;7.13;;
15921;SDS011;8060;50.948;3.146;2023-10-09T00:18:10;11.83;;;7.13;;
15921;SDS011;8060;50.948;3.146;2023-10-09T00:20:39;17.73;;;7.53;;
15921;SDS011;8060;50.948;3.146;2023-10-09T00:23:09;13.80;;;7.23;;
15921;SDS011;8060;50.948;3.146;2023-10-09T00:25:48;13.60;;;7.10;;
15921;SDS011;8060;50.948;3.146;2023-10-09T00:28:34;13.97;;;7.10;;
15921;SDS011;8060;50.948;3.146;2023-10-09T00:31:05;11.23;;;7.57;;
15921;SDS011;8060;50.948;3.146;2023-10-09T00:33:34;12.77;;;7.13;;
15921;SDS011;8060;50.948;3.146;2023-10-09T00:36:02;14.50;;;7.17;;
15921;SDS011;8060;50.948;3.146;2023-10-09T00:38:36;9.73;;;7.17;;
15921;SDS011;8060;50.948;3.146;2023-10-09T00:41:11;13.57;;;7.70;;
15921;SDS011;8060;50.948;3.146;2023-10-09T00:43:46;12.90;;;7.93;;
15921;SDS011;8060;50.948;3.146;2023-10-09T00:46:17;10.47;;;7.47;;
15921;SDS011;8060;50.948;3.146;2023-10-09T00:48:54;14.83;;;7.87;;
15921;SDS011;8060;50.948;3.146;2023-10-09T00:51:24;13.57;;;7.93;;
15921;SDS011;8060;50.948;3.146;2023-10-09T00:53:59;14.50;;;7.33;;
15921;SDS011;8060;50.948;3.146;2023-10-09T00:56:33;12.10;;;7.60;;
15921;SDS011;8060;50.948;3.146;2023-10-09T00:59:10;11.70;;;7.57;;
15921;SDS011;8060;50.948;3.146;2023-10-09T01:01:42;13.03;;;7.70;;
15921;SDS011;8060;50.948;3.146;2023-10-09T01:04:23;15.03;;;7.93;;
15921;SDS011;8060;50.948;3.146;2023-10-09T01:06:55;14.83;;;8.50;;
15921;SDS011;8060;50.948;3.146;2023-10-09T01:09:34;12.57;;;7.70;;
15921;SDS011;8060;50.948;3.146;2023-10-09T01:12:04;12.67;;;7.53;;
15921;SDS011;8060;50.948;3.146;2023-10-09T01:14:33;16.60;;;8.47;;
15921;SDS011;8060;50.948;3.146;2023-10-09T01:17:08;12.87;;;7.50;;
15921;SDS011;8060;50.948;3.146;2023-10-09T01:19:37;14.13;;;8.10;;
15921;SDS011;8060;50.948;3.146;2023-10-09T01:22:06;12.17;;;8.10;;
15921;SDS011;8060;50.948;3.146;2023-10-09T01:24:41;15.47;;;8.20;;
15921;SDS011;8060;50.948;3.146;2023-10-09T01:27:10;13.50;;;8.23;;
15921;SDS011;8060;50.948;3.146;2023-10-09T01:29:42;16.50;;;8.33;;
15921;SDS011;8060;50.948;3.146;2023-10-09T01:32:12;13.53;;;9.20;;
15921;SDS011;8060;50.948;3.146;2023-10-09T01:34:45;16.10;;;8.80;;
15921;SDS011;8060;50.948;3.146;2023-10-09T01:37:16;14.33;;;8.80;;
15921;SDS011;8060;50.948;3.146;2023-10-09T01:39:50;15.43;;;9.10;;
15921;SDS011;8060;50.948;3.146;2023-10-09T01:42:19;17.13;;;9.03;;
15921;SDS011;8060;50.948;3.146;2023-10-09T01:44:58;15.70;;;9.33;;
15921;SDS011;8060;50.948;3.146;2023-10-09T01:47:36;16.17;;;8.50;;
15921;SDS011;8060;50.948;3.146;2023-10-09T01:50:05;14.23;;;9.43;;
15921;SDS011;8060;50.948;3.146;2023-10-09T01:52:37;13.87;;;9.10;;
15921;SDS011;8060;50.948;3.146;2023-10-09T01:55:07;15.60;;;9.37;;
15921;SDS011;8060;50.948;3.146;2023-10-09T01:57:39;15.07;;;9.40;;
15921;SDS011;8060;50.948;3.146;2023-10-09T02:00:11;14.33;;;9.20;;
15921;SDS011;8060;50.948;3.146;2023-10-09T02:02:49;15.77;;;10.10;;
15921;SDS011;8060;50.948;3.146;2023-10-09T02:05:18;16.13;;;10.50;;
15921;SDS011;8060;50.948;3.146;2023-10-09T02:07:52;17.70;;;10.90;;
15921;SDS011;8060;50.948;3.146;2023-10-09T02:10:22;17.90;;;10.63;;
15921;SDS011;8060;50.948;3.146;2023-10-09T02:12:59;16.67;;;11.07;;
15921;SDS011;8060;50.948;3.146;2023-10-09T02:15:34;17.00;;;11.50;;
15921;SDS011;8060;50.948;3.146;2023-10-09T02:18:18;24.47;;;11.83;;
15921;SDS011;8060;50.948;3.146;2023-10-09T02:21:04;18.10;;;12.27;;
15921;SDS011;8060;50.948;3.146;2023-10-09T02:23:40;21.97;;;13.17;;
15921;SDS011;8060;50.948;3.146;2023-10-09T02:26:13;20.97;;;13.23;;
15921;SDS011;8060;50.948;3.146;2023-10-09T02:28:46;24.63;;;14.30;;
15921;SDS011;8060;50.948;3.146;2023-10-09T02:31:25;22.53;;;15.23;;
15921;SDS011;8060;50.948;3.146;2023-10-09T02:34:02;23.60;;;14.53;;
15921;SDS011;8060;50.948;3.146;2023-10-09T02:36:39;22.87;;;14.97;;
15921;SDS011;8060;50.948;3.146;2023-10-09T02:39:08;21.50;;;14.80;;
15921;SDS011;8060;50.948;3.146;2023-10-09T02:41:51;24.87;;;16.23;;
15921;SDS011;8060;50.948;3.146;2023-10-09T02:44:26;23.27;;;16.23;;
15921;SDS011;8060;50.948;3.146;2023-10-09T02:46:58;26.77;;;15.67;;
15921;SDS011;8060;50.948;3.146;2023-10-09T02:49:31;24.77;;;16.90;;
15921;SDS011;8060;50.948;3.146;2023-10-09T02:52:00;29.53;;;16.20;;
15921;SDS011;8060;50.948;3.146;2023-10-09T02:54:33;25.50;;;16.80;;
15921;SDS011;8060;50.948;3.146;2023-10-09T02:57:04;21.17;;;16.00;;
15921;SDS011;8060;50.948;3.146;2023-10-09T02:59:42;23.73;;;16.73;;
15921;SDS011;8060;50.948;3.146;2023-10-09T03:02:11;27.33;;;15.73;;
15921;SDS011;8060;50.948;3.146;2023-10-09T03:04:39;25.40;;;15.43;;
15921;SDS011;8060;50.948;3.146;2023-10-09T03:07:08;26.97;;;15.53;;
15921;SDS011;8060;50.948;3.146;2023-10-09T03:09:37;24.83;;;16.57;;
15921;SDS011;8060;50.948;3.146;2023-10-09T03:12:08;23.73;;;16.33;;
15921;SDS011;8060;50.948;3.146;2023-10-09T03:14:38;24.63;;;16.00;;
15921;SDS011;8060;50.948;3.146;2023-10-09T03:17:08;23.40;;;15.77;;
15921;SDS011;8060;50.948;3.146;2023-10-09T03:19:38;24.57;;;15.63;;
15921;SDS011;8060;50.948;3.146;2023-10-09T03:22:07;23.17;;;15.33;;
15921;SDS011;8060;50.948;3.146;2023-10-09T03:24:37;21.77;;;15.17;;
15921;SDS011;8060;50.948;3.146;2023-10-09T03:27:09;23.57;;;16.07;;
15921;SDS011;8060;50.948;3.146;2023-10-09T03:29:37;25.27;;;15.60;;
15921;SDS011;8060;50.948;3.146;2023-10-09T03:32:05;27.87;;;17.07;;
15921;SDS011;8060;50.948;3.146;2023-10-09T03:34:35;24.90;;;16.50;;
15921;SDS011;8060;50.948;3.146;2023-10-09T03:37:03;24.53;;;15.90;;
15921;SDS011;8060;50.948;3.146;2023-10-09T03:39:32;26.17;;;17.17;;
15921;SDS011;8060;50.948;3.146;2023-10-09T03:42:07;26.17;;;16.63;;
15921;SDS011;8060;50.948;3.146;2023-10-09T03:44:47;25.67;;;17.57;;
15921;SDS011;8060;50.948;3.146;2023-10-09T03:47:20;27.37;;;17.77;;
15921;SDS011;8060;50.948;3.146;2023-10-09T03:49:51;28.33;;;17.93;;
15921;SDS011;8060;50.948;3.146;2023-10-09T03:52:21;29.90;;;17.40;;
15921;SDS011;8060;50.948;3.146;2023-10-09T03:54:52;25.37;;;17.37;;
15921;SDS011;8060;50.948;3.146;2023-10-09T03:57:22;27.97;;;17.47;;
15921;SDS011;8060;50.948;3.146;2023-10-09T03:59:52;27.93;;;17.73;;
15921;SDS011;8060;50.948;3.146;2023-10-09T04:02:22;27.47;;;16.87;;
15921;SDS011;8060;50.948;3.146;2023-10-09T04:04:51;29.07;;;16.87;;
15921;SDS011;8060;50.948;3.146;2023-10-09T04:07:19;34.03;;;18.20;;
15921;SDS011;8060;50.948;3.146;2023-10-09T04:09:48;29.27;;;17.63;;
15921;SDS011;8060;50.948;3.146;2023-10-09T04:12:29;29.23;;;18.00;;
15921;SDS011;8060;50.948;3.146;2023-10-09T04:15:01;26.33;;;17.87;;
15921;SDS011;8060;50.948;3.146;2023-10-09T04:17:33;24.80;;;18.20;;
15921;SDS011;8060;50.948;3.146;2023-10-09T04:20:01;26.73;;;18.27;;
15921;SDS011;8060;50.948;3.146;2023-10-09T04:23:13;37.97;;;17.87;;
15921;SDS011;8060;50.948;3.146;2023-10-09T04:25:42;34.77;;;18.40;;
15921;SDS011;8060;50.948;3.146;2023-10-09T04:28:16;39.17;;;19.53;;
15921;SDS011;8060;50.948;3.146;2023-10-09T04:30:48;32.70;;;18.17;;
15921;SDS011;8060;50.948;3.146;2023-10-09T04:33:22;31.07;;;18.73;;
15921;SDS011;8060;50.948;3.146;2023-10-09T04:36:01;29.30;;;18.37;;
15921;SDS011;8060;50.948;3.146;2023-10-09T04:38:43;29.10;;;18.30;;
15921;SDS011;8060;50.948;3.146;2023-10-09T04:41:22;32.60;;;18.13;;
15921;SDS011;8060;50.948;3.146;2023-10-09T04:43:59;31.67;;;18.80;;
15921;SDS011;8060;50.948;3.146;2023-10-09T04:46:47;27.83;;;17.30;;
15921;SDS011;8060;50.948;3.146;2023-10-09T04:49:30;28.30;;;17.43;;
15921;SDS011;8060;50.948;3.146;2023-10-09T04:52:15;30.80;;;17.97;;
15921;SDS011;8060;50.948;3.146;2023-10-09T04:55:07;30.07;;;20.00;;
15921;SDS011;8060;50.948;3.146;2023-10-09T04:57:44;28.83;;;17.77;;
15921;SDS011;8060;50.948;3.146;2023-10-09T05:00:28;30.13;;;19.13;;
15921;SDS011;8060;50.948;3.146;2023-10-09T05:03:29;33.53;;;18.43;;
15921;SDS011;8060;50.948;3.146;2023-10-09T05:06:11;32.53;;;19.03;;
15921;SDS011;8060;50.948;3.146;2023-10-09T05:09:09;32.27;;;19.17;;
15921;SDS011;8060;50.948;3.146;2023-10-09T05:11:41;33.83;;;19.07;;
15921;SDS011;8060;50.948;3.146;2023-10-09T05:14:36;27.60;;;19.47;;
15921;SDS011;8060;50.948;3.146;2023-10-09T05:17:11;32.63;;;20.03;;
15921;SDS011;8060;50.948;3.146;2023-10-09T05:19:44;29.97;;;20.00;;
15921;SDS011;8060;50.948;3.146;2023-10-09T05:22:44;34.47;;;19.80;;
15921;SDS011;8060;50.948;3.146;2023-10-09T05:25:24;29.10;;;18.93;;
15921;SDS011;8060;50.948;3.146;2023-10-09T05:28:21;32.27;;;19.17;;
15921;SDS011;8060;50.948;3.146;2023-10-09T05:30:51;28.77;;;19.60;;
15921;SDS011;8060;50.948;3.146;2023-10-09T05:33:29;36.17;;;18.90;;
15921;SDS011;8060;50.948;3.146;2023-10-09T05:36:02;37.73;;;18.23;;
15921;SDS011;8060;50.948;3.146;2023-10-09T05:38:58;33.10;;;18.40;;
15921;SDS011;8060;50.948;3.146;2023-10-09T05:41:25;27.80;;;17.80;;
15921;SDS011;8060;50.948;3.146;2023-10-09T05:44:14;28.57;;;18.33;;
15921;SDS011;8060;50.948;3.146;2023-10-09T05:46:59;33.03;;;17.77;;
15921;SDS011;8060;50.948;3.146;2023-10-09T05:49:46;29.17;;;17.60;;
15921;SDS011;8060;50.948;3.146;2023-10-09T05:52:23;30.70;;;17.40;;
15921;SDS011;8060;50.948;3.146;2023-10-09T05:55:19;29.37;;;18.70;;
15921;SDS011;8060;50.948;3.146;2023-10-09T05:58:08;30.13;;;18.50;;
15921;SDS011;8060;50.948;3.146;2023-10-09T06:00:53;33.83;;;20.00;;
15921;SDS011;8060;50.948;3.146;2023-10-09T06:03:47;30.83;;;20.03;;
15921;SDS011;8060;50.948;3.146;2023-10-09T06:06:22;29.43;;;19.37;;
15921;SDS011;8060;50.948;3.146;2023-10-09T06:09:11;30.13;;;18.57;;
15921;SDS011;8060;50.948;3.146;2023-10-09T06:11:57;31.10;;;19.93;;
15921;SDS011;8060;50.948;3.146;2023-10-09T06:14:40;31.27;;;20.70;;
15921;SDS011;8060;50.948;3.146;2023-10-09T06:17:27;26.13;;;20.63;;
15921;SDS011;8060;50.948;3.146;2023-10-09T06:20:10;36.03;;;20.77;;
15921;SDS011;8060;50.948;3.146;2023-10-09T06:22:52;32.87;;;20.87;;
15921;SDS011;8060;50.948;3.146;2023-10-09T06:25:43;31.10;;;20.63;;
15921;SDS011;8060;50.948;3.146;2023-10-09T06:28:18;34.73;;;21.83;;
15921;SDS011;8060;50.948;3.146;2023-10-09T06:30:59;35.73;;;21.80;;
15921;SDS011;8060;50.948;3.146;2023-10-09T06:33:47;33.07;;;20.63;;
15921;SDS011;8060;50.948;3.146;2023-10-09T06:36:34;35.10;;;22.63;;
15921;SDS011;8060;50.948;3.146;2023-10-09T06:39:12;30.93;;;22.53;;
15921;SDS011;8060;50.948;3.146;2023-10-09T06:42:07;32.90;;;23.13;;
15921;SDS011;8060;50.948;3.146;2023-10-09T06:44:59;34.40;;;21.87;;
15921;SDS011;8060;50.948;3.146;2023-10-09T06:47:31;35.43;;;22.13;;
15921;SDS011;8060;50.948;3.146;2023-10-09T06:50:08;32.20;;;21.67;;
15921;SDS011;8060;50.948;3.146;2023-10-09T06:52:51;36.03;;;21.50;;
15921;SDS011;8060;50.948;3.146;2023-10-09T06:55:52;40.27;;;22.50;;
15921;SDS011;8060;50.948;3.146;2023-10-09T06:58:28;41.73;;;22.90;;
15921;SDS011;8060;50.948;3.146;2023-10-09T07:01:08;41.70;;;22.97;;
15921;SDS011;8060;50.948;3.146;2023-10-09T07:03:50;37.10;;;23.87;;
15921;SDS011;8060;50.948;3.146;2023-10-09T07:06:20;38.87;;;23.30;;
15921;SDS011;8060;50.948;3.146;2023-10-09T07:08:52;36.30;;;22.67;;
15921;SDS011;8060;50.948;3.146;2023-10-09T07:11:42;37.83;;;23.73;;
15921;SDS011;8060;50.948;3.146;2023-10-09T07:14:37;43.60;;;23.73;;
15921;SDS011;8060;50.948;3.146;2023-10-09T07:17:28;35.37;;;23.03;;
15921;SDS011;8060;50.948;3.146;2023-10-09T07:20:12;44.90;;;23.10;;
15921;SDS011;8060;50.948;3.146;2023-10-09T07:22:42;34.77;;;23.40;;
15921;SDS011;8060;50.948;3.146;2023-10-09T07:25:40;36.43;;;22.77;;
15921;SDS011;8060;50.948;3.146;2023-10-09T07:28:21;35.23;;;22.70;;
15921;SDS011;8060;50.948;3.146;2023-10-09T07:31:17;41.93;;;23.80;;
15921;SDS011;8060;50.948;3.146;2023-10-09T07:34:06;43.87;;;24.30;;
15921;SDS011;8060;50.948;3.146;2023-10-09T07:36:48;38.17;;;24.90;;
15921;SDS011;8060;50.948;3.146;2023-10-09T07:39:23;36.03;;;23.27;;
15921;SDS011;8060;50.948;3.146;2023-10-09T07:42:04;41.97;;;24.40;;
15921;SDS011;8060;50.948;3.146;2023-10-09T07:44:56;41.93;;;24.00;;
15921;SDS011;8060;50.948;3.146;2023-10-09T07:47:25;41.27;;;24.40;;
15921;SDS011;8060;50.948;3.146;2023-10-09T07:50:27;41.07;;;24.60;;
15921;SDS011;8060;50.948;3.146;2023-10-09T07:53:04;42.40;;;25.67;;
15921;SDS011;8060;50.948;3.146;2023-10-09T07:55:53;43.23;;;25.43;;
15921;SDS011;8060;50.948;3.146;2023-10-09T07:58:22;38.53;;;24.23;;
15921;SDS011;8060;50.948;3.146;2023-10-09T08:00:52;40.53;;;25.27;;
15921;SDS011;8060;50.948;3.146;2023-10-09T08:03:36;38.07;;;25.00;;
15921;SDS011;8060;50.948;3.146;2023-10-09T08:06:04;43.87;;;25.97;;
15921;SDS011;8060;50.948;3.146;2023-10-09T08:08:56;38.83;;;24.53;;
15921;SDS011;8060;50.948;3.146;2023-10-09T08:11:48;37.67;;;24.50;;
15921;SDS011;8060;50.948;3.146;2023-10-09T08:14:34;40.90;;;24.27;;
15921;SDS011;8060;50.948;3.146;2023-10-09T08:17:15;38.53;;;25.50;;
15921;SDS011;8060;50.948;3.146;2023-10-09T08:19:45;37.83;;;24.53;;
15921;SDS011;8060;50.948;3.146;2023-10-09T08:22:22;37.97;;;24.77;;
15921;SDS011;8060;50.948;3.146;2023-10-09T08:25:20;43.77;;;24.17;;
15921;SDS011;8060;50.948;3.146;2023-10-09T08:27:55;40.53;;;24.37;;
15921;SDS011;8060;50.948;3.146;2023-10-09T08:30:24;37.73;;;24.57;;
15921;SDS011;8060;50.948;3.146;2023-10-09T08:33:07;36.07;;;23.97;;
15921;SDS011;8060;50.948;3.146;2023-10-09T08:35:57;38.57;;;23.80;;
15921;SDS011;8060;50.948;3.146;2023-10-09T08:38:31;37.90;;;24.37;;
15921;SDS011;8060;50.948;3.146;2023-10-09T08:41:09;41.30;;;24.20;;
15921;SDS011;8060;50.948;3.146;2023-10-09T08:43:48;38.20;;;23.97;;
15921;SDS011;8060;50.948;3.146;2023-10-09T08:46:19;36.67;;;22.77;;
15921;SDS011;8060;50.948;3.146;2023-10-09T08:48:48;35.27;;;22.37;;
15921;SDS011;8060;50.948;3.146;2023-10-09T08:51:18;39.00;;;23.07;;
15921;SDS011;8060;50.948;3.146;2023-10-09T08:53:47;35.87;;;23.37;;
15921;SDS011;8060;50.948;3.146;2023-10-09T08:56:16;38.17;;;23.40;;
15921;SDS011;8060;50.948;3.146;2023-10-09T08:58:52;39.03;;;23.27;;
15921;SDS011;8060;50.948;3.146;2023-10-09T09:01:22;34.63;;;22.60;;
15921;SDS011;8060;50.948;3.146;2023-10-09T09:03:52;32.73;;;22.63;;
15921;SDS011;8060;50.948;3.146;2023-10-09T09:06:23;33.50;;;23.07;;
15921;SDS011;8060;50.948;3.146;2023-10-09T09:08:52;34.20;;;21.57;;
15921;SDS011;8060;50.948;3.146;2023-10-09T09:11:26;32.47;;;22.97;;
15921;SDS011;8060;50.948;3.146;2023-10-09T09:14:02;35.13;;;21.70;;
15921;SDS011;8060;50.948;3.146;2023-10-09T09:16:33;33.30;;;21.60;;
15921;SDS011;8060;50.948;3.146;2023-10-09T09:19:04;35.57;;;21.20;;
15921;SDS011;8060;50.948;3.146;2023-10-09T09:21:49;35.17;;;21.27;;
15921;SDS011;8060;50.948;3.146;2023-10-09T09:24:21;33.70;;;20.93;;
15921;SDS011;8060;50.948;3.146;2023-10-09T09:27:00;32.03;;;20.33;;
15921;SDS011;8060;50.948;3.146;2023-10-09T09:29:40;31.63;;;20.03;;
15921;SDS011;8060;50.948;3.146;2023-10-09T09:32:26;36.83;;;20.57;;
15921;SDS011;8060;50.948;3.146;2023-10-09T09:35:02;29.37;;;19.83;;
15921;SDS011;8060;50.948;3.146;2023-10-09T09:37:33;30.70;;;19.73;;
15921;SDS011;8060;50.948;3.146;2023-10-09T09:40:17;27.43;;;19.07;;
15921;SDS011;8060;50.948;3.146;2023-10-09T09:43:00;30.03;;;19.43;;
15921;SDS011;8060;50.948;3.146;2023-10-09T09:45:33;32.40;;;18.63;;
15921;SDS011;8060;50.948;3.146;2023-10-09T09:48:03;31.30;;;18.73;;
15921;SDS011;8060;50.948;3.146;2023-10-09T09:50:33;30.63;;;18.00;;
15921;SDS011;8060;50.948;3.146;2023-10-09T09:53:11;26.37;;;17.23;;
15921;SDS011;8060;50.948;3.146;2023-10-09T09:55:44;26.10;;;16.67;;
15921;SDS011;8060;50.948;3.146;2023-10-09T09:58:25;26.93;;;17.73;;
15921;SDS011;8060;50.948;3.146;2023-10-09T10:01:00;28.03;;;17.50;;
15921;SDS011;8060;50.948;3.146;2023-10-09T10:03:42;26.63;;;17.87;;
15921;SDS011;8060;50.948;3.146;2023-10-09T10:06:15;27.03;;;16.20;;
15921;SDS011;8060;50.948;3.146;2023-10-09T10:08:49;22.73;;;15.90;;
15921;SDS011;8060;50.948;3.146;2023-10-09T10:14:18;26.88;;;15.18;;
15921;SDS011;8060;50.948;3.146;2023-10-09T10:17:05;22.52;;;14.00;;
15921;SDS011;8060;50.948;3.146;2023-10-09T10:20:04;24.55;;;15.23;;
15921;SDS011;8060;50.948;3.146;2023-10-09T10:23:14;27.92;;;14.60;;
15921;SDS011;8060;50.948;3.146;2023-10-09T10:25:47;27.13;;;14.55;;
15921;SDS011;8060;50.948;3.146;2023-10-09T10:28:27;23.58;;;14.50;;
15921;SDS011;8060;50.948;3.146;2023-10-09T10:31:09;24.77;;;14.82;;
15921;SDS011;8060;50.948;3.146;2023-10-09T10:36:37;24.80;;;13.63;;
15921;SDS011;8060;50.948;3.146;2023-10-09T10:39:09;23.05;;;14.82;;
15921;SDS011;8060;50.948;3.146;2023-10-09T10:41:55;29.23;;;15.75;;
15921;SDS011;8060;50.948;3.146;2023-10-09T10:44:26;24.00;;;15.43;;
15921;SDS011;8060;50.948;3.146;2023-10-09T10:47:05;21.38;;;14.15;;
15921;SDS011;8060;50.948;3.146;2023-10-09T10:49:48;24.10;;;15.63;;
15921;SDS011;8060;50.948;3.146;2023-10-09T10:52:21;24.15;;;14.40;;
15921;SDS011;8060;50.948;3.146;2023-10-09T10:55:11;25.45;;;14.48;;
15921;SDS011;8060;50.948;3.146;2023-10-09T10:58:16;26.15;;;16.15;;
15921;SDS011;8060;50.948;3.146;2023-10-09T11:01:01;27.37;;;14.83;;
15921;SDS011;8060;50.948;3.146;2023-10-09T11:03:38;24.10;;;15.10;;
15921;SDS011;8060;50.948;3.146;2023-10-09T11:06:25;22.07;;;13.50;;
15921;SDS011;8060;50.948;3.146;2023-10-09T11:09:03;23.00;;;13.00;;
15921;SDS011;8060;50.948;3.146;2023-10-09T11:11:48;19.87;;;12.87;;
15921;SDS011;8060;50.948;3.146;2023-10-09T11:14:18;19.10;;;12.52;;
15921;SDS011;8060;50.948;3.146;2023-10-09T11:16:50;21.20;;;12.80;;
15921;SDS011;8060;50.948;3.146;2023-10-09T11:19:24;21.83;;;13.00;;
15921;SDS011;8060;50.948;3.146;2023-10-09T11:21:58;22.33;;;13.20;;
15921;SDS011;8060;50.948;3.146;2023-10-09T11:24:41;23.80;;;13.10;;
15921;SDS011;8060;50.948;3.146;2023-10-09T11:27:10;25.00;;;12.90;;
15921;SDS011;8060;50.948;3.146;2023-10-09T11:29:49;21.45;;;13.07;;
15921;SDS011;8060;50.948;3.146;2023-10-09T11:32:21;21.45;;;13.25;;
15921;SDS011;8060;50.948;3.146;2023-10-09T11:34:50;27.25;;;13.25;;
15921;SDS011;8060;50.948;3.146;2023-10-09T11:37:36;28.58;;;12.77;;
15921;SDS011;8060;50.948;3.146;2023-10-09T11:40:06;21.20;;;13.15;;
15921;SDS011;8060;50.948;3.146;2023-10-09T11:42:50;24.08;;;12.02;;
15921;SDS011;8060;50.948;3.146;2023-10-09T11:45:25;22.30;;;11.80;;
15921;SDS011;8060;50.948;3.146;2023-10-09T11:47:57;21.67;;;13.27;;
15921;SDS011;8060;50.948;3.146;2023-10-09T11:50:38;24.95;;;13.25;;
15921;SDS011;8060;50.948;3.146;2023-10-09T11:53:10;21.35;;;12.98;;
15921;SDS011;8060;50.948;3.146;2023-10-09T11:56:00;20.60;;;12.50;;
15921;SDS011;8060;50.948;3.146;2023-10-09T11:58:28;19.67;;;12.85;;
15921;SDS011;8060;50.948;3.146;2023-10-09T12:00:58;23.83;;;13.02;;
15921;SDS011;8060;50.948;3.146;2023-10-09T12:03:32;19.85;;;12.18;;
15921;SDS011;8060;50.948;3.146;2023-10-09T12:06:01;25.23;;;12.98;;
15921;SDS011;8060;50.948;3.146;2023-10-09T12:08:32;20.20;;;11.43;;
15921;SDS011;8060;50.948;3.146;2023-10-09T12:11:01;23.25;;;11.80;;
15921;SDS011;8060;50.948;3.146;2023-10-09T12:13:35;20.67;;;12.13;;
15921;SDS011;8060;50.948;3.146;2023-10-09T12:16:06;23.48;;;11.55;;
15921;SDS011;8060;50.948;3.146;2023-10-09T12:18:37;20.45;;;10.95;;
15921;SDS011;8060;50.948;3.146;2023-10-09T12:21:06;18.85;;;10.07;;
15921;SDS011;8060;50.948;3.146;2023-10-09T12:23:34;21.95;;;11.15;;
15921;SDS011;8060;50.948;3.146;2023-10-09T12:26:03;20.52;;;10.95;;
15921;SDS011;8060;50.948;3.146;2023-10-09T12:28:41;18.05;;;10.73;;
15921;SDS011;8060;50.948;3.146;2023-10-09T12:31:14;20.55;;;10.57;;
15921;SDS011;8060;50.948;3.146;2023-10-09T12:33:46;16.85;;;10.60;;
15921;SDS011;8060;50.948;3.146;2023-10-09T12:36:16;20.13;;;11.70;;
15921;SDS011;8060;50.948;3.146;2023-10-09T12:38:47;21.17;;;11.43;;
15921;SDS011;8060;50.948;3.146;2023-10-09T12:41:17;19.25;;;11.55;;
15921;SDS011;8060;50.948;3.146;2023-10-09T12:43:46;24.77;;;12.13;;
15921;SDS011;8060;50.948;3.146;2023-10-09T12:46:16;22.17;;;11.95;;
15921;SDS011;8060;50.948;3.146;2023-10-09T12:48:44;26.10;;;11.80;;
15921;SDS011;8060;50.948;3.146;2023-10-09T12:51:13;21.02;;;11.75;;
15921;SDS011;8060;50.948;3.146;2023-10-09T12:53:43;19.13;;;11.15;;
15921;SDS011;8060;50.948;3.146;2023-10-09T12:56:12;19.40;;;10.55;;
15921;SDS011;8060;50.948;3.146;2023-10-09T12:58:40;17.45;;;10.68;;
15921;SDS011;8060;50.948;3.146;2023-10-09T13:01:20;15.93;;;10.02;;
15921;SDS011;8060;50.948;3.146;2023-10-09T13:03:49;20.20;;;10.38;;
15921;SDS011;8060;50.948;3.146;2023-10-09T13:06:17;18.00;;;9.65;;
15921;SDS011;8060;50.948;3.146;2023-10-09T13:08:51;22.75;;;10.32;;
15921;SDS011;8060;50.948;3.146;2023-10-09T13:11:19;17.98;;;9.38;;
15921;SDS011;8060;50.948;3.146;2023-10-09T13:13:47;16.80;;;9.05;;
15921;SDS011;8060;50.948;3.146;2023-10-09T13:16:18;18.98;;;9.43;;
15921;SDS011;8060;50.948;3.146;2023-10-09T13:18:52;15.45;;;9.30;;
15921;SDS011;8060;50.948;3.146;2023-10-09T13:21:21;18.70;;;9.48;;
15921;SDS011;8060;50.948;3.146;2023-10-09T13:23:50;15.32;;;9.23;;
15921;SDS011;8060;50.948;3.146;2023-10-09T13:26:21;18.88;;;10.18;;
15921;SDS011;8060;50.948;3.146;2023-10-09T13:29:00;17.48;;;9.98;;
15921;SDS011;8060;50.948;3.146;2023-10-09T13:31:30;19.33;;;9.75;;
15921;SDS011;8060;50.948;3.146;2023-10-09T13:34:03;19.40;;;10.52;;
15921;SDS011;8060;50.948;3.146;2023-10-09T13:36:33;24.75;;;10.60;;
15921;SDS011;8060;50.948;3.146;2023-10-09T13:39:02;23.95;;;10.23;;
15921;SDS011;8060;50.948;3.146;2023-10-09T13:41:45;28.60;;;10.20;;
15921;SDS011;8060;50.948;3.146;2023-10-09T13:44:14;22.63;;;10.10;;
15921;SDS011;8060;50.948;3.146;2023-10-09T13:46:43;19.10;;;9.73;;
15921;SDS011;8060;50.948;3.146;2023-10-09T13:49:12;22.45;;;9.25;;
15921;SDS011;8060;50.948;3.146;2023-10-09T13:51:41;21.65;;;9.98;;
15921;SDS011;8060;50.948;3.146;2023-10-09T13:54:11;21.27;;;8.52;;
15921;SDS011;8060;50.948;3.146;2023-10-09T13:56:46;20.17;;;8.98;;
15921;SDS011;8060;50.948;3.146;2023-10-09T13:59:19;17.48;;;8.48;;
15921;SDS011;8060;50.948;3.146;2023-10-09T14:01:49;17.85;;;9.38;;
15921;SDS011;8060;50.948;3.146;2023-10-09T14:04:18;16.30;;;8.82;;
15921;SDS011;8060;50.948;3.146;2023-10-09T14:06:47;20.58;;;7.90;;
15921;SDS011;8060;50.948;3.146;2023-10-09T14:09:15;17.85;;;8.45;;
15921;SDS011;8060;50.948;3.146;2023-10-09T14:11:58;15.30;;;8.30;;
15921;SDS011;8060;50.948;3.146;2023-10-09T14:14:34;18.48;;;8.73;;
15921;SDS011;8060;50.948;3.146;2023-10-09T14:17:05;20.02;;;9.00;;
15921;SDS011;8060;50.948;3.146;2023-10-09T14:19:40;16.50;;;8.68;;
15921;SDS011;8060;50.948;3.146;2023-10-09T14:22:13;18.58;;;8.68;;
15921;SDS011;8060;50.948;3.146;2023-10-09T14:24:42;19.10;;;8.93;;
15921;SDS011;8060;50.948;3.146;2023-10-09T14:27:12;22.75;;;8.90;;
15921;SDS011;8060;50.948;3.146;2023-10-09T14:29:44;18.67;;;8.52;;
15921;SDS011;8060;50.948;3.146;2023-10-09T14:32:12;19.20;;;7.80;;
15921;SDS011;8060;50.948;3.146;2023-10-09T14:34:42;20.65;;;8.38;;
15921;SDS011;8060;50.948;3.146;2023-10-09T14:37:16;20.10;;;8.45;;
15921;SDS011;8060;50.948;3.146;2023-10-09T14:39:45;15.68;;;7.90;;
15921;SDS011;8060;50.948;3.146;2023-10-09T14:42:15;17.73;;;8.52;;
15921;SDS011;8060;50.948;3.146;2023-10-09T14:44:44;17.00;;;8.25;;
15921;SDS011;8060;50.948;3.146;2023-10-09T14:47:12;17.15;;;7.78;;
15921;SDS011;8060;50.948;3.146;2023-10-09T14:49:43;17.08;;;7.97;;
15921;SDS011;8060;50.948;3.146;2023-10-09T14:52:15;18.38;;;7.95;;
15921;SDS011;8060;50.948;3.146;2023-10-09T14:54:45;12.88;;;7.75;;
15921;SDS011;8060;50.948;3.146;2023-10-09T14:57:16;18.50;;;8.35;;
15921;SDS011;8060;50.948;3.146;2023-10-09T14:59:44;18.10;;;8.20;;
15921;SDS011;8060;50.948;3.146;2023-10-09T15:02:12;18.70;;;8.57;;
15921;SDS011;8060;50.948;3.146;2023-10-09T15:04:43;16.38;;;8.27;;
15921;SDS011;8060;50.948;3.146;2023-10-09T15:07:11;18.73;;;8.63;;
15921;SDS011;8060;50.948;3.146;2023-10-09T15:10:01;19.00;;;8.95;;
15921;SDS011;8060;50.948;3.146;2023-10-09T15:12:35;17.48;;;8.77;;
15921;SDS011;8060;50.948;3.146;2023-10-09T15:15:09;19.70;;;9.07;;
15921;SDS011;8060;50.948;3.146;2023-10-09T15:17:40;22.08;;;8.57;;
15921;SDS011;8060;50.948;3.146;2023-10-09T15:20:12;15.68;;;8.63;;
15921;SDS011;8060;50.948;3.146;2023-10-09T15:22:42;20.30;;;8.95;;
15921;SDS011;8060;50.948;3.146;2023-10-09T15:25:11;19.05;;;8.63;;
15921;SDS011;8060;50.948;3.146;2023-10-09T15:27:41;19.85;;;8.73;;
15921;SDS011;8060;50.948;3.146;2023-10-09T15:30:10;15.65;;;8.77;;
15921;SDS011;8060;50.948;3.146;2023-10-09T15:32:41;21.58;;;8.52;;
15921;SDS011;8060;50.948;3.146;2023-10-09T15:35:09;22.80;;;9.07;;